Terminal Aerodrome Forecast
Issued by NWS Mt. Holly, NJ

Home | Current Version | Previous Version | Text Only | Print | Product List | Glossary On
Versions: 1 2 3 4 5 6 7 8 9 10 11 12 13 14 15 16 17 18 19 20
000
FTUS41 KPHI 222328
TAFABE
TAF
KABE 222328Z 2300/2324 21010KT P6SM SCT040
     FM230100 22010KT P6SM BKN040
      TEMPO 2301/2303 25015G35KT 3SM +TSRA BR OVC010CB
     FM230300 25006KT P6SM -SHRA SCT015 OVC035
     FM230700 26004KT P6SM BKN035
     FM231000 30006KT P6SM BKN050
     FM231500 32006KT P6SM SCT050=

USA.gov is the U.S. government's official web portal to all federal, state and local government web resources and services.